Terminal Aerodrome Forecast
Issued by NWS

Home | Current Version | Previous Version | Text Only | Print | Product List | Glossary On
Versions: 1 2 3 4 5 6 7 8 9 10 11 12 13 14 15 16 17 18
986
FTUS43 KDVN 270520
TAFBRL
TAF
KBRL 270520Z 2706/2806 VRB03KT 6SM -RA BR SCT050 OVC090
      TEMPO 2706/2710 5SM TSRA BR OVC040CB
     FM271000 17007KT 6SM BR VCTS OVC040CB
     FM271500 18010G18KT P6SM BKN050 PROB30 2720/2724 4SM TSRA
      BKN035CB
     FM280000 16008KT P6SM VCTS BKN050CB=

USA.gov is the U.S. government's official web portal to all federal, state and local government web resources and services.